sensor_id;sensor_type;location;lat;lon;timestamp;temperature;humidity
74540;SHT31;66042;51.090;-115.340;2023-08-01T00:00:17;50.39;8.06
74540;SHT31;66042;51.090;-115.340;2023-08-01T00:02:44;50.50;8.27
74540;SHT31;66042;51.090;-115.340;2023-08-01T00:05:11;50.59;8.20
74540;SHT31;66042;51.090;-115.340;2023-08-01T00:07:38;50.62;8.01
74540;SHT31;66042;51.090;-115.340;2023-08-01T00:10:05;50.14;7.99
74540;SHT31;66042;51.090;-115.340;2023-08-01T00:12:32;48.63;8.40
74540;SHT31;66042;51.090;-115.340;2023-08-01T00:15:00;47.80;8.54
74540;SHT31;66042;51.090;-115.340;2023-08-01T00:17:27;47.31;8.61
74540;SHT31;66042;51.090;-115.340;2023-08-01T00:19:54;46.57;8.96
74540;SHT31;66042;51.090;-115.340;2023-08-01T00:22:21;45.61;8.67
74540;SHT31;66042;51.090;-115.340;2023-08-01T00:24:48;44.55;9.23
74540;SHT31;66042;51.090;-115.340;2023-08-01T00:27:16;43.87;9.55
74540;SHT31;66042;51.090;-115.340;2023-08-01T00:29:43;43.34;9.49
74540;SHT31;66042;51.090;-115.340;2023-08-01T00:32:10;42.73;9.52
74540;SHT31;66042;51.090;-115.340;2023-08-01T00:34:37;42.03;9.75
74540;SHT31;66042;51.090;-115.340;2023-08-01T00:37:05;41.09;9.72
74540;SHT31;66042;51.090;-115.340;2023-08-01T00:39:32;40.26;9.99
74540;SHT31;66042;51.090;-115.340;2023-08-01T00:41:59;39.65;10.64
74540;SHT31;66042;51.090;-115.340;2023-08-01T00:44:25;39.09;10.64
74540;SHT31;66042;51.090;-115.340;2023-08-01T00:46:52;38.67;10.46
74540;SHT31;66042;51.090;-115.340;2023-08-01T00:49:19;38.35;10.39
74540;SHT31;66042;51.090;-115.340;2023-08-01T00:51:46;37.91;11.10
74540;SHT31;66042;51.090;-115.340;2023-08-01T00:54:14;37.44;11.22
74540;SHT31;66042;51.090;-115.340;2023-08-01T00:56:42;36.94;11.62
74540;SHT31;66042;51.090;-115.340;2023-08-01T00:59:10;36.53;12.06
74540;SHT31;66042;51.090;-115.340;2023-08-01T01:01:38;36.24;11.93
74540;SHT31;66042;51.090;-115.340;2023-08-01T01:04:05;35.94;12.40
74540;SHT31;66042;51.090;-115.340;2023-08-01T01:06:34;35.63;12.71
74540;SHT31;66042;51.090;-115.340;2023-08-01T01:09:16;35.39;12.72
74540;SHT31;66042;51.090;-115.340;2023-08-01T01:11:44;35.09;12.27
74540;SHT31;66042;51.090;-115.340;2023-08-01T01:14:12;34.79;12.50
74540;SHT31;66042;51.090;-115.340;2023-08-01T01:16:39;34.47;13.15
74540;SHT31;66042;51.090;-115.340;2023-08-01T01:19:07;34.24;13.17
74540;SHT31;66042;51.090;-115.340;2023-08-01T01:21:35;34.04;13.11
74540;SHT31;66042;51.090;-115.340;2023-08-01T01:24:07;33.87;13.66
74540;SHT31;66042;51.090;-115.340;2023-08-01T01:26:36;33.70;13.57
74540;SHT31;66042;51.090;-115.340;2023-08-01T01:29:05;33.50;13.16
74540;SHT31;66042;51.090;-115.340;2023-08-01T01:31:34;33.25;12.90
74540;SHT31;66042;51.090;-115.340;2023-08-01T01:34:02;33.05;13.03
74540;SHT31;66042;51.090;-115.340;2023-08-01T01:36:30;32.90;13.15
74540;SHT31;66042;51.090;-115.340;2023-08-01T01:38:57;32.77;13.66
74540;SHT31;66042;51.090;-115.340;2023-08-01T01:41:23;32.57;13.14
74540;SHT31;66042;51.090;-115.340;2023-08-01T01:43:51;32.32;13.79
74540;SHT31;66042;51.090;-115.340;2023-08-01T01:46:17;32.18;14.27
74540;SHT31;66042;51.090;-115.340;2023-08-01T01:48:44;31.98;14.31
74540;SHT31;66042;51.090;-115.340;2023-08-01T01:51:13;31.79;14.40
74540;SHT31;66042;51.090;-115.340;2023-08-01T01:53:40;31.62;14.97
74540;SHT31;66042;51.090;-115.340;2023-08-01T01:56:07;31.46;14.94
74540;SHT31;66042;51.090;-115.340;2023-08-01T01:58:34;31.22;14.56
74540;SHT31;66042;51.090;-115.340;2023-08-01T02:01:01;31.02;14.96
74540;SHT31;66042;51.090;-115.340;2023-08-01T02:03:28;30.85;15.06
74540;SHT31;66042;51.090;-115.340;2023-08-01T02:05:55;30.62;15.48
74540;SHT31;66042;51.090;-115.340;2023-08-01T02:08:22;30.43;16.27
74540;SHT31;66042;51.090;-115.340;2023-08-01T02:10:49;30.24;15.72
74540;SHT31;66042;51.090;-115.340;2023-08-01T02:13:17;30.03;15.52
74540;SHT31;66042;51.090;-115.340;2023-08-01T02:15:44;29.83;15.72
74540;SHT31;66042;51.090;-115.340;2023-08-01T02:18:11;29.65;16.35
74540;SHT31;66042;51.090;-115.340;2023-08-01T02:20:38;29.51;16.93
74540;SHT31;66042;51.090;-115.340;2023-08-01T02:23:05;29.36;17.32
74540;SHT31;66042;51.090;-115.340;2023-08-01T02:25:31;29.21;17.49
74540;SHT31;66042;51.090;-115.340;2023-08-01T02:28:04;29.09;17.30
74540;SHT31;66042;51.090;-115.340;2023-08-01T02:30:31;28.94;17.16
74540;SHT31;66042;51.090;-115.340;2023-08-01T02:32:59;28.79;17.30
74540;SHT31;66042;51.090;-115.340;2023-08-01T02:35:27;28.63;18.13
74540;SHT31;66042;51.090;-115.340;2023-08-01T02:37:55;28.44;18.76
74540;SHT31;66042;51.090;-115.340;2023-08-01T02:40:22;28.24;19.55
74540;SHT31;66042;51.090;-115.340;2023-08-01T02:42:49;28.05;20.33
74540;SHT31;66042;51.090;-115.340;2023-08-01T02:45:16;27.87;20.78
74540;SHT31;66042;51.090;-115.340;2023-08-01T02:47:44;27.68;21.21
74540;SHT31;66042;51.090;-115.340;2023-08-01T02:50:11;27.48;21.86
74540;SHT31;66042;51.090;-115.340;2023-08-01T02:52:38;27.31;21.78
74540;SHT31;66042;51.090;-115.340;2023-08-01T02:55:05;27.11;21.97
74540;SHT31;66042;51.090;-115.340;2023-08-01T02:57:32;26.89;21.99
74540;SHT31;66042;51.090;-115.340;2023-08-01T02:59:59;26.70;22.16
74540;SHT31;66042;51.090;-115.340;2023-08-01T03:02:25;26.54;22.76
74540;SHT31;66042;51.090;-115.340;2023-08-01T03:04:53;26.37;23.35
74540;SHT31;66042;51.090;-115.340;2023-08-01T03:07:19;26.20;23.41
74540;SHT31;66042;51.090;-115.340;2023-08-01T03:09:47;26.03;22.52
74540;SHT31;66042;51.090;-115.340;2023-08-01T03:12:14;25.85;23.09
74540;SHT31;66042;51.090;-115.340;2023-08-01T03:14:42;25.66;23.94
74540;SHT31;66042;51.090;-115.340;2023-08-01T03:17:10;25.50;24.17
74540;SHT31;66042;51.090;-115.340;2023-08-01T03:19:37;25.27;24.01
74540;SHT31;66042;51.090;-115.340;2023-08-01T03:22:04;25.08;24.36
74540;SHT31;66042;51.090;-115.340;2023-08-01T03:24:33;24.88;24.75
74540;SHT31;66042;51.090;-115.340;2023-08-01T03:26:59;24.73;24.71
74540;SHT31;66042;51.090;-115.340;2023-08-01T03:29:27;24.61;25.17
74540;SHT31;66042;51.090;-115.340;2023-08-01T03:31:53;24.47;24.93
74540;SHT31;66042;51.090;-115.340;2023-08-01T03:34:21;24.32;25.19
74540;SHT31;66042;51.090;-115.340;2023-08-01T03:36:47;24.16;25.68
74540;SHT31;66042;51.090;-115.340;2023-08-01T03:39:15;24.03;25.77
74540;SHT31;66042;51.090;-115.340;2023-08-01T03:41:43;23.84;25.92
74540;SHT31;66042;51.090;-115.340;2023-08-01T03:44:09;23.59;26.55
74540;SHT31;66042;51.090;-115.340;2023-08-01T03:46:36;23.46;26.84
74540;SHT31;66042;51.090;-115.340;2023-08-01T03:49:02;23.30;26.97
74540;SHT31;66042;51.090;-115.340;2023-08-01T03:51:29;23.18;26.84
74540;SHT31;66042;51.090;-115.340;2023-08-01T03:53:56;23.06;27.02
74540;SHT31;66042;51.090;-115.340;2023-08-01T03:56:22;22.93;27.14
74540;SHT31;66042;51.090;-115.340;2023-08-01T03:58:49;22.83;27.26
74540;SHT31;66042;51.090;-115.340;2023-08-01T04:01:15;22.71;26.97
74540;SHT31;66042;51.090;-115.340;2023-08-01T04:03:42;22.57;27.13
74540;SHT31;66042;51.090;-115.340;2023-08-01T04:06:08;22.40;27.11
74540;SHT31;66042;51.090;-115.340;2023-08-01T04:08:40;22.16;27.37
74540;SHT31;66042;51.090;-115.340;2023-08-01T04:11:07;22.06;27.36
74540;SHT31;66042;51.090;-115.340;2023-08-01T04:13:34;21.95;27.78
74540;SHT31;66042;51.090;-115.340;2023-08-01T04:16:00;21.78;28.14
74540;SHT31;66042;51.090;-115.340;2023-08-01T04:18:27;21.63;28.36
74540;SHT31;66042;51.090;-115.340;2023-08-01T04:20:54;21.52;28.46
74540;SHT31;66042;51.090;-115.340;2023-08-01T04:23:20;21.44;28.72
74540;SHT31;66042;51.090;-115.340;2023-08-01T04:25:47;21.36;28.86
74540;SHT31;66042;51.090;-115.340;2023-08-01T04:28:14;21.27;29.00
74540;SHT31;66042;51.090;-115.340;2023-08-01T04:30:40;21.12;28.84
74540;SHT31;66042;51.090;-115.340;2023-08-01T04:33:07;20.93;29.02
74540;SHT31;66042;51.090;-115.340;2023-08-01T04:35:34;20.86;29.17
74540;SHT31;66042;51.090;-115.340;2023-08-01T04:38:01;20.77;29.09
74540;SHT31;66042;51.090;-115.340;2023-08-01T04:40:28;20.67;29.19
74540;SHT31;66042;51.090;-115.340;2023-08-01T04:42:55;20.52;29.94
74540;SHT31;66042;51.090;-115.340;2023-08-01T04:45:22;20.40;30.39
74540;SHT31;66042;51.090;-115.340;2023-08-01T04:47:49;20.31;30.56
74540;SHT31;66042;51.090;-115.340;2023-08-01T04:50:16;20.20;30.71
74540;SHT31;66042;51.090;-115.340;2023-08-01T04:52:43;20.09;31.01
74540;SHT31;66042;51.090;-115.340;2023-08-01T04:55:10;19.97;31.34
74540;SHT31;66042;51.090;-115.340;2023-08-01T04:57:36;19.85;31.32
74540;SHT31;66042;51.090;-115.340;2023-08-01T05:00:03;19.72;31.44
74540;SHT31;66042;51.090;-115.340;2023-08-01T05:02:31;19.61;31.77
74540;SHT31;66042;51.090;-115.340;2023-08-01T05:04:58;19.43;32.39
74540;SHT31;66042;51.090;-115.340;2023-08-01T05:07:25;19.32;32.62
74540;SHT31;66042;51.090;-115.340;2023-08-01T05:09:52;19.27;32.71
74540;SHT31;66042;51.090;-115.340;2023-08-01T05:12:19;19.19;33.13
74540;SHT31;66042;51.090;-115.340;2023-08-01T05:14:46;19.11;33.20
74540;SHT31;66042;51.090;-115.340;2023-08-01T05:17:13;19.04;33.26
74540;SHT31;66042;51.090;-115.340;2023-08-01T05:19:39;18.99;33.38
74540;SHT31;66042;51.090;-115.340;2023-08-01T05:22:06;18.93;33.56
74540;SHT31;66042;51.090;-115.340;2023-08-01T05:24:33;18.87;33.64
74540;SHT31;66042;51.090;-115.340;2023-08-01T05:27:00;18.76;33.80
74540;SHT31;66042;51.090;-115.340;2023-08-01T05:29:28;18.68;34.44
74540;SHT31;66042;51.090;-115.340;2023-08-01T05:31:55;18.62;34.60
74540;SHT31;66042;51.090;-115.340;2023-08-01T05:34:21;18.57;34.83
74540;SHT31;66042;51.090;-115.340;2023-08-01T05:36:49;18.45;35.04
74540;SHT31;66042;51.090;-115.340;2023-08-01T05:39:16;18.38;35.25
74540;SHT31;66042;51.090;-115.340;2023-08-01T05:41:43;18.30;35.77
74540;SHT31;66042;51.090;-115.340;2023-08-01T05:44:10;18.19;35.99
74540;SHT31;66042;51.090;-115.340;2023-08-01T05:46:37;18.11;36.14
74540;SHT31;66042;51.090;-115.340;2023-08-01T05:49:03;18.04;36.24
74540;SHT31;66042;51.090;-115.340;2023-08-01T05:51:30;17.97;36.45
74540;SHT31;66042;51.090;-115.340;2023-08-01T05:53:57;17.86;36.15
74540;SHT31;66042;51.090;-115.340;2023-08-01T05:56:24;17.74;36.59
74540;SHT31;66042;51.090;-115.340;2023-08-01T05:58:51;17.62;37.09
74540;SHT31;66042;51.090;-115.340;2023-08-01T06:01:19;17.53;37.05
74540;SHT31;66042;51.090;-115.340;2023-08-01T06:03:46;17.48;37.17
74540;SHT31;66042;51.090;-115.340;2023-08-01T06:06:13;17.45;37.35
74540;SHT31;66042;51.090;-115.340;2023-08-01T06:08:39;17.42;37.20
74540;SHT31;66042;51.090;-115.340;2023-08-01T06:11:06;17.36;37.28
74540;SHT31;66042;51.090;-115.340;2023-08-01T06:13:33;17.27;37.39
74540;SHT31;66042;51.090;-115.340;2023-08-01T06:16:00;17.23;38.13
74540;SHT31;66042;51.090;-115.340;2023-08-01T06:18:27;17.10;38.68
74540;SHT31;66042;51.090;-115.340;2023-08-01T06:20:54;17.08;38.93
74540;SHT31;66042;51.090;-115.340;2023-08-01T06:23:21;17.05;39.01
74540;SHT31;66042;51.090;-115.340;2023-08-01T06:25:49;17.01;38.99
74540;SHT31;66042;51.090;-115.340;2023-08-01T06:28:16;16.95;39.99
74540;SHT31;66042;51.090;-115.340;2023-08-01T06:30:44;16.86;40.25
74540;SHT31;66042;51.090;-115.340;2023-08-01T06:33:12;16.85;40.32
74540;SHT31;66042;51.090;-115.340;2023-08-01T06:35:39;16.83;40.50
74540;SHT31;66042;51.090;-115.340;2023-08-01T06:38:06;16.79;40.73
74540;SHT31;66042;51.090;-115.340;2023-08-01T06:40:33;16.75;41.04
74540;SHT31;66042;51.090;-115.340;2023-08-01T06:43:01;16.68;41.08
74540;SHT31;66042;51.090;-115.340;2023-08-01T06:45:31;16.64;41.03
74540;SHT31;66042;51.090;-115.340;2023-08-01T06:47:58;16.59;41.10
74540;SHT31;66042;51.090;-115.340;2023-08-01T06:50:25;16.54;41.11
74540;SHT31;66042;51.090;-115.340;2023-08-01T06:52:52;16.49;41.04
74540;SHT31;66042;51.090;-115.340;2023-08-01T06:55:19;16.43;41.58
74540;SHT31;66042;51.090;-115.340;2023-08-01T06:57:46;16.23;42.63
74540;SHT31;66042;51.090;-115.340;2023-08-01T07:00:13;16.07;42.56
74540;SHT31;66042;51.090;-115.340;2023-08-01T07:02:40;16.05;42.37
74540;SHT31;66042;51.090;-115.340;2023-08-01T07:05:07;16.06;42.22
74540;SHT31;66042;51.090;-115.340;2023-08-01T07:07:34;16.04;42.04
74540;SHT31;66042;51.090;-115.340;2023-08-01T07:10:01;16.00;42.31
74540;SHT31;66042;51.090;-115.340;2023-08-01T07:12:28;15.96;42.93
74540;SHT31;66042;51.090;-115.340;2023-08-01T07:14:55;15.86;43.44
74540;SHT31;66042;51.090;-115.340;2023-08-01T07:17:22;15.80;43.44
74540;SHT31;66042;51.090;-115.340;2023-08-01T07:19:49;15.80;43.27
74540;SHT31;66042;51.090;-115.340;2023-08-01T07:22:16;15.77;43.10
74540;SHT31;66042;51.090;-115.340;2023-08-01T07:24:43;15.75;43.70
74540;SHT31;66042;51.090;-115.340;2023-08-01T07:27:10;15.64;44.53
74540;SHT31;66042;51.090;-115.340;2023-08-01T07:29:37;15.57;44.64
74540;SHT31;66042;51.090;-115.340;2023-08-01T07:32:04;15.57;44.40
74540;SHT31;66042;51.090;-115.340;2023-08-01T07:34:32;15.57;44.43
74540;SHT31;66042;51.090;-115.340;2023-08-01T07:36:59;15.53;44.44
74540;SHT31;66042;51.090;-115.340;2023-08-01T07:39:26;15.48;44.49
74540;SHT31;66042;51.090;-115.340;2023-08-01T07:41:53;15.41;45.08
74540;SHT31;66042;51.090;-115.340;2023-08-01T07:44:22;15.25;45.64
74540;SHT31;66042;51.090;-115.340;2023-08-01T07:46:49;15.20;45.57
74540;SHT31;66042;51.090;-115.340;2023-08-01T07:49:16;15.21;45.68
74540;SHT31;66042;51.090;-115.340;2023-08-01T07:51:43;15.16;45.92
74540;SHT31;66042;51.090;-115.340;2023-08-01T07:54:10;15.11;45.94
74540;SHT31;66042;51.090;-115.340;2023-08-01T07:56:37;15.08;45.98
74540;SHT31;66042;51.090;-115.340;2023-08-01T07:59:04;15.06;46.12
74540;SHT31;66042;51.090;-115.340;2023-08-01T08:01:31;15.04;46.24
74540;SHT31;66042;51.090;-115.340;2023-08-01T08:03:58;15.02;46.12
74540;SHT31;66042;51.090;-115.340;2023-08-01T08:06:25;14.94;46.34
74540;SHT31;66042;51.090;-115.340;2023-08-01T08:08:52;14.75;46.83
74540;SHT31;66042;51.090;-115.340;2023-08-01T08:11:19;14.70;46.94
74540;SHT31;66042;51.090;-115.340;2023-08-01T08:13:45;14.66;46.69
74540;SHT31;66042;51.090;-115.340;2023-08-01T08:16:13;14.69;46.43
74540;SHT31;66042;51.090;-115.340;2023-08-01T08:18:40;14.69;46.34
74540;SHT31;66042;51.090;-115.340;2023-08-01T08:21:07;14.65;46.35
74540;SHT31;66042;51.090;-115.340;2023-08-01T08:23:35;14.60;46.43
74540;SHT31;66042;51.090;-115.340;2023-08-01T08:26:02;14.50;46.55
74540;SHT31;66042;51.090;-115.340;2023-08-01T08:28:31;14.47;46.40
74540;SHT31;66042;51.090;-115.340;2023-08-01T08:30:59;14.48;46.14
74540;SHT31;66042;51.090;-115.340;2023-08-01T08:33:28;14.48;46.40
74540;SHT31;66042;51.090;-115.340;2023-08-01T08:35:56;14.41;46.83
74540;SHT31;66042;51.090;-115.340;2023-08-01T08:38:23;14.37;47.19
74540;SHT31;66042;51.090;-115.340;2023-08-01T08:43:55;14.30;47.64
74540;SHT31;66042;51.090;-115.340;2023-08-01T08:46:26;14.29;47.73
74540;SHT31;66042;51.090;-115.340;2023-08-01T08:48:56;14.26;47.91
74540;SHT31;66042;51.090;-115.340;2023-08-01T08:51:23;14.23;48.00
74540;SHT31;66042;51.090;-115.340;2023-08-01T08:53:56;14.21;48.22
74540;SHT31;66042;51.090;-115.340;2023-08-01T08:56:23;14.19;48.21
74540;SHT31;66042;51.090;-115.340;2023-08-01T08:58:50;14.14;48.38
74540;SHT31;66042;51.090;-115.340;2023-08-01T09:01:19;14.08;48.40
74540;SHT31;66042;51.090;-115.340;2023-08-01T09:03:46;14.04;48.43
74540;SHT31;66042;51.090;-115.340;2023-08-01T09:06:17;14.03;48.49
74540;SHT31;66042;51.090;-115.340;2023-08-01T09:09:08;13.92;48.70
74540;SHT31;66042;51.090;-115.340;2023-08-01T09:11:50;13.92;48.46
74540;SHT31;66042;51.090;-115.340;2023-08-01T09:14:18;13.91;48.52
74540;SHT31;66042;51.090;-115.340;2023-08-01T09:16:46;13.88;48.56
74540;SHT31;66042;51.090;-115.340;2023-08-01T09:19:23;13.74;49.16
74540;SHT31;66042;51.090;-115.340;2023-08-01T09:21:52;13.65;49.23
74540;SHT31;66042;51.090;-115.340;2023-08-01T09:24:20;13.68;48.77
74540;SHT31;66042;51.090;-115.340;2023-08-01T09:26:48;13.70;48.67
74540;SHT31;66042;51.090;-115.340;2023-08-01T09:29:19;13.66;48.79
74540;SHT31;66042;51.090;-115.340;2023-08-01T09:31:47;13.65;48.65
74540;SHT31;66042;51.090;-115.340;2023-08-01T09:34:24;13.64;48.67
74540;SHT31;66042;51.090;-115.340;2023-08-01T09:36:59;13.63;48.44
74540;SHT31;66042;51.090;-115.340;2023-08-01T09:39:27;13.64;48.19
74540;SHT31;66042;51.090;-115.340;2023-08-01T09:41:55;13.62;48.34
74540;SHT31;66042;51.090;-115.340;2023-08-01T09:44:23;13.58;48.43
74540;SHT31;66042;51.090;-115.340;2023-08-01T09:49:34;13.44;48.84
74540;SHT31;66042;51.090;-115.340;2023-08-01T09:52:02;13.40;49.01
74540;SHT31;66042;51.090;-115.340;2023-08-01T09:54:29;13.35;49.17
74540;SHT31;66042;51.090;-115.340;2023-08-01T09:56:56;13.28;49.24
74540;SHT31;66042;51.090;-115.340;2023-08-01T09:59:25;13.29;49.17
74540;SHT31;66042;51.090;-115.340;2023-08-01T10:01:54;13.31;49.34
74540;SHT31;66042;51.090;-115.340;2023-08-01T10:04:25;13.27;49.72
74540;SHT31;66042;51.090;-115.340;2023-08-01T10:06:59;13.19;50.00
74540;SHT31;66042;51.090;-115.340;2023-08-01T10:09:40;13.18;49.91
74540;SHT31;66042;51.090;-115.340;2023-08-01T10:12:08;13.16;49.90
74540;SHT31;66042;51.090;-115.340;2023-08-01T10:14:41;13.15;50.11
74540;SHT31;66042;51.090;-115.340;2023-08-01T10:17:08;13.09;50.49
74540;SHT31;66042;51.090;-115.340;2023-08-01T10:19:37;13.07;50.37
74540;SHT31;66042;51.090;-115.340;2023-08-01T10:22:06;13.03;50.16
74540;SHT31;66042;51.090;-115.340;2023-08-01T10:24:35;13.00;49.82
74540;SHT31;66042;51.090;-115.340;2023-08-01T10:27:11;12.98;49.35
74540;SHT31;66042;51.090;-115.340;2023-08-01T10:29:45;12.97;48.97
74540;SHT31;66042;51.090;-115.340;2023-08-01T10:32:33;12.94;48.65
74540;SHT31;66042;51.090;-115.340;2023-08-01T10:35:02;12.89;48.60
74540;SHT31;66042;51.090;-115.340;2023-08-01T10:37:41;12.82;48.71
74540;SHT31;66042;51.090;-115.340;2023-08-01T10:40:15;12.79;49.15
74540;SHT31;66042;51.090;-115.340;2023-08-01T10:42:43;12.67;49.78
74540;SHT31;66042;51.090;-115.340;2023-08-01T10:45:21;12.64;49.87
74540;SHT31;66042;51.090;-115.340;2023-08-01T10:47:50;12.65;49.95
74540;SHT31;66042;51.090;-115.340;2023-08-01T10:50:17;12.68;50.00
74540;SHT31;66042;51.090;-115.340;2023-08-01T10:52:45;12.68;50.10
74540;SHT31;66042;51.090;-115.340;2023-08-01T10:55:12;12.67;49.96
74540;SHT31;66042;51.090;-115.340;2023-08-01T10:57:46;12.61;50.11
74540;SHT31;66042;51.090;-115.340;2023-08-01T11:00:15;12.56;50.03
74540;SHT31;66042;51.090;-115.340;2023-08-01T11:02:51;12.55;50.00
74540;SHT31;66042;51.090;-115.340;2023-08-01T11:05:18;12.46;49.94
74540;SHT31;66042;51.090;-115.340;2023-08-01T11:07:55;12.38;50.45
74540;SHT31;66042;51.090;-115.340;2023-08-01T11:10:30;12.34;50.82
74540;SHT31;66042;51.090;-115.340;2023-08-01T11:12:59;12.28;50.83
74540;SHT31;66042;51.090;-115.340;2023-08-01T11:15:26;12.27;50.89
74540;SHT31;66042;51.090;-115.340;2023-08-01T11:17:54;12.29;50.68
74540;SHT31;66042;51.090;-115.340;2023-08-01T11:20:23;12.28;50.16
74540;SHT31;66042;51.090;-115.340;2023-08-01T11:22:52;12.28;50.09
74540;SHT31;66042;51.090;-115.340;2023-08-01T11:28:15;12.27;49.84
74540;SHT31;66042;51.090;-115.340;2023-08-01T11:30:43;12.28;49.94
74540;SHT31;66042;51.090;-115.340;2023-08-01T11:33:21;12.25;49.82
74540;SHT31;66042;51.090;-115.340;2023-08-01T11:35:53;12.22;49.37
74540;SHT31;66042;51.090;-115.340;2023-08-01T11:38:25;12.21;49.11
74540;SHT31;66042;51.090;-115.340;2023-08-01T11:40:59;12.16;49.23
74540;SHT31;66042;51.090;-115.340;2023-08-01T11:43:37;12.16;49.31
74540;SHT31;66042;51.090;-115.340;2023-08-01T11:46:09;12.15;49.10
74540;SHT31;66042;51.090;-115.340;2023-08-01T11:48:36;12.13;49.30
74540;SHT31;66042;51.090;-115.340;2023-08-01T11:51:03;12.09;49.35
74540;SHT31;66042;51.090;-115.340;2023-08-01T11:53:30;12.04;49.24
74540;SHT31;66042;51.090;-115.340;2023-08-01T11:56:04;11.98;49.14
74540;SHT31;66042;51.090;-115.340;2023-08-01T11:58:32;11.94;49.31
74540;SHT31;66042;51.090;-115.340;2023-08-01T12:01:19;11.87;49.44
74540;SHT31;66042;51.090;-115.340;2023-08-01T12:03:47;11.84;49.58
74540;SHT31;66042;51.090;-115.340;2023-08-01T12:06:17;11.82;49.75
74540;SHT31;66042;51.090;-115.340;2023-08-01T12:08:48;11.82;49.62
74540;SHT31;66042;51.090;-115.340;2023-08-01T12:14:09;11.79;49.96
74540;SHT31;66042;51.090;-115.340;2023-08-01T12:16:39;11.78;50.07
74540;SHT31;66042;51.090;-115.340;2023-08-01T12:19:19;11.77;50.11
74540;SHT31;66042;51.090;-115.340;2023-08-01T12:21:47;11.75;49.90
74540;SHT31;66042;51.090;-115.340;2023-08-01T12:24:15;11.74;49.70
74540;SHT31;66042;51.090;-115.340;2023-08-01T12:26:42;11.73;49.52
74540;SHT31;66042;51.090;-115.340;2023-08-01T12:29:09;11.69;49.58
74540;SHT31;66042;51.090;-115.340;2023-08-01T12:31:37;11.66;49.39
74540;SHT31;66042;51.090;-115.340;2023-08-01T12:34:04;11.63;49.69
74540;SHT31;66042;51.090;-115.340;2023-08-01T12:36:31;11.65;49.65
74540;SHT31;66042;51.090;-115.340;2023-08-01T12:38:58;11.66;49.70
74540;SHT31;66042;51.090;-115.340;2023-08-01T12:41:25;11.63;49.86
74540;SHT31;66042;51.090;-115.340;2023-08-01T12:43:52;11.62;49.99
74540;SHT31;66042;51.090;-115.340;2023-08-01T12:46:19;11.61;49.87
74540;SHT31;66042;51.090;-115.340;2023-08-01T12:48:46;11.62;49.98
74540;SHT31;66042;51.090;-115.340;2023-08-01T12:51:13;11.63;49.84
74540;SHT31;66042;51.090;-115.340;2023-08-01T12:53:41;11.61;49.52
74540;SHT31;66042;51.090;-115.340;2023-08-01T12:56:08;11.62;49.67
74540;SHT31;66042;51.090;-115.340;2023-08-01T12:58:35;11.64;49.46
74540;SHT31;66042;51.090;-115.340;2023-08-01T13:01:02;11.62;49.35
74540;SHT31;66042;51.090;-115.340;2023-08-01T13:03:30;11.58;49.44
74540;SHT31;66042;51.090;-115.340;2023-08-01T13:05:57;11.57;49.84
74540;SHT31;66042;51.090;-115.340;2023-08-01T13:08:24;11.60;49.84
74540;SHT31;66042;51.090;-115.340;2023-08-01T13:10:51;11.60;50.26
74540;SHT31;66042;51.090;-115.340;2023-08-01T13:13:18;11.55;50.70
74540;SHT31;66042;51.090;-115.340;2023-08-01T13:15:45;11.55;50.70
74540;SHT31;66042;51.090;-115.340;2023-08-01T13:18:13;11.54;50.76
74540;SHT31;66042;51.090;-115.340;2023-08-01T13:20:40;11.57;50.79
74540;SHT31;66042;51.090;-115.340;2023-08-01T13:23:06;11.59;50.88
74540;SHT31;66042;51.090;-115.340;2023-08-01T13:25:33;11.58;51.03
74540;SHT31;66042;51.090;-115.340;2023-08-01T13:28:02;11.59;51.21
74540;SHT31;66042;51.090;-115.340;2023-08-01T13:30:29;11.59;51.25
74540;SHT31;66042;51.090;-115.340;2023-08-01T13:32:55;11.60;51.08
74540;SHT31;66042;51.090;-115.340;2023-08-01T13:35:22;11.58;50.68
74540;SHT31;66042;51.090;-115.340;2023-08-01T13:37:49;11.54;50.23
74540;SHT31;66042;51.090;-115.340;2023-08-01T13:40:16;11.47;50.24
74540;SHT31;66042;51.090;-115.340;2023-08-01T13:42:43;11.41;49.69
74540;SHT31;66042;51.090;-115.340;2023-08-01T13:45:10;11.36;49.70
74540;SHT31;66042;51.090;-115.340;2023-08-01T13:47:37;11.35;49.64
74540;SHT31;66042;51.090;-115.340;2023-08-01T13:50:04;11.34;49.58
74540;SHT31;66042;51.090;-115.340;2023-08-01T13:52:32;11.36;49.55
74540;SHT31;66042;51.090;-115.340;2023-08-01T13:54:59;11.40;49.59
74540;SHT31;66042;51.090;-115.340;2023-08-01T13:57:28;11.39;49.54
74540;SHT31;66042;51.090;-115.340;2023-08-01T13:59:55;11.38;50.22
74540;SHT31;66042;51.090;-115.340;2023-08-01T14:02:22;11.43;50.29
74540;SHT31;66042;51.090;-115.340;2023-08-01T14:04:52;11.45;50.60
74540;SHT31;66042;51.090;-115.340;2023-08-01T14:07:19;11.49;50.62
74540;SHT31;66042;51.090;-115.340;2023-08-01T14:09:49;11.50;51.12
74540;SHT31;66042;51.090;-115.340;2023-08-01T14:12:16;11.51;51.13
74540;SHT31;66042;51.090;-115.340;2023-08-01T14:14:45;11.59;50.89
74540;SHT31;66042;51.090;-115.340;2023-08-01T14:17:11;11.65;50.76
74540;SHT31;66042;51.090;-115.340;2023-08-01T14:19:38;11.68;50.47
74540;SHT31;66042;51.090;-115.340;2023-08-01T14:22:05;11.73;50.34
74540;SHT31;66042;51.090;-115.340;2023-08-01T14:24:32;11.77;50.37
74540;SHT31;66042;51.090;-115.340;2023-08-01T14:26:59;11.82;50.47
74540;SHT31;66042;51.090;-115.340;2023-08-01T14:29:25;11.86;50.45
74540;SHT31;66042;51.090;-115.340;2023-08-01T14:31:52;11.90;50.24
74540;SHT31;66042;51.090;-115.340;2023-08-01T14:34:19;11.96;50.36
74540;SHT31;66042;51.090;-115.340;2023-08-01T14:36:46;12.02;50.37
74540;SHT31;66042;51.090;-115.340;2023-08-01T14:39:13;12.06;50.75
74540;SHT31;66042;51.090;-115.340;2023-08-01T14:41:39;12.11;50.38
74540;SHT31;66042;51.090;-115.340;2023-08-01T14:44:06;12.15;50.18
74540;SHT31;66042;51.090;-115.340;2023-08-01T14:46:35;12.19;50.04
74540;SHT31;66042;51.090;-115.340;2023-08-01T14:49:02;12.23;50.33
74540;SHT31;66042;51.090;-115.340;2023-08-01T14:51:29;12.27;50.34
74540;SHT31;66042;51.090;-115.340;2023-08-01T14:53:56;12.29;50.62
74540;SHT31;66042;51.090;-115.340;2023-08-01T14:56:23;12.33;50.61
74540;SHT31;66042;51.090;-115.340;2023-08-01T14:58:50;12.40;50.54
74540;SHT31;66042;51.090;-115.340;2023-08-01T15:01:17;12.46;50.57
74540;SHT31;66042;51.090;-115.340;2023-08-01T15:03:44;12.52;50.29